sensor_id;sensor_type;location;lat;lon;timestamp;P1;durP1;ratioP1;P2;durP2;ratioP2
56242;SDS011;42155;53.096;23.226;2024-02-21T00:00:51;5.75;;;2.63;;
56242;SDS011;42155;53.096;23.226;2024-02-21T00:02:52;5.55;;;3.08;;
56242;SDS011;42155;53.096;23.226;2024-02-21T00:04:52;6.75;;;3.10;;
56242;SDS011;42155;53.096;23.226;2024-02-21T00:06:52;7.22;;;3.28;;
56242;SDS011;42155;53.096;23.226;2024-02-21T00:08:53;5.85;;;2.88;;
56242;SDS011;42155;53.096;23.226;2024-02-21T00:10:53;6.45;;;3.17;;
56242;SDS011;42155;53.096;23.226;2024-02-21T00:12:53;8.43;;;3.17;;
56242;SDS011;42155;53.096;23.226;2024-02-21T00:14:54;6.75;;;3.00;;
56242;SDS011;42155;53.096;23.226;2024-02-21T00:16:54;7.55;;;3.40;;
56242;SDS011;42155;53.096;23.226;2024-02-21T00:18:54;4.90;;;2.92;;
56242;SDS011;42155;53.096;23.226;2024-02-21T00:20:55;6.68;;;3.15;;
56242;SDS011;42155;53.096;23.226;2024-02-21T00:22:56;4.85;;;2.63;;
56242;SDS011;42155;53.096;23.226;2024-02-21T00:24:56;4.57;;;2.80;;
56242;SDS011;42155;53.096;23.226;2024-02-21T00:26:56;3.60;;;2.40;;
56242;SDS011;42155;53.096;23.226;2024-02-21T00:28:57;4.60;;;2.50;;
56242;SDS011;42155;53.096;23.226;2024-02-21T00:30:57;4.53;;;2.75;;
56242;SDS011;42155;53.096;23.226;2024-02-21T00:32:57;3.80;;;2.05;;
56242;SDS011;42155;53.096;23.226;2024-02-21T00:34:58;4.07;;;1.92;;
56242;SDS011;42155;53.096;23.226;2024-02-21T00:36:58;3.35;;;1.92;;
56242;SDS011;42155;53.096;23.226;2024-02-21T00:38:58;3.78;;;2.33;;
56242;SDS011;42155;53.096;23.226;2024-02-21T00:40:59;4.65;;;2.40;;
56242;SDS011;42155;53.096;23.226;2024-02-21T00:42:59;4.13;;;2.25;;
56242;SDS011;42155;53.096;23.226;2024-02-21T00:44:59;7.00;;;2.83;;
56242;SDS011;42155;53.096;23.226;2024-02-21T00:47:00;5.03;;;2.40;;
56242;SDS011;42155;53.096;23.226;2024-02-21T00:49:00;3.13;;;2.00;;
56242;SDS011;42155;53.096;23.226;2024-02-21T00:51:00;4.65;;;2.45;;
56242;SDS011;42155;53.096;23.226;2024-02-21T00:53:01;4.72;;;2.53;;
56242;SDS011;42155;53.096;23.226;2024-02-21T00:55:01;5.32;;;2.50;;
56242;SDS011;42155;53.096;23.226;2024-02-21T00:57:01;4.72;;;2.50;;
56242;SDS011;42155;53.096;23.226;2024-02-21T00:59:02;3.90;;;2.35;;
56242;SDS011;42155;53.096;23.226;2024-02-21T01:01:02;4.63;;;2.10;;
56242;SDS011;42155;53.096;23.226;2024-02-21T01:03:02;4.03;;;2.33;;
56242;SDS011;42155;53.096;23.226;2024-02-21T01:05:03;3.22;;;2.00;;
56242;SDS011;42155;53.096;23.226;2024-02-21T01:07:04;3.38;;;2.10;;
56242;SDS011;42155;53.096;23.226;2024-02-21T01:09:04;3.70;;;2.15;;
56242;SDS011;42155;53.096;23.226;2024-02-21T01:11:04;4.78;;;2.45;;
56242;SDS011;42155;53.096;23.226;2024-02-21T01:13:05;4.15;;;1.90;;
56242;SDS011;42155;53.096;23.226;2024-02-21T01:15:05;4.55;;;2.10;;
56242;SDS011;42155;53.096;23.226;2024-02-21T01:17:05;4.13;;;2.30;;
56242;SDS011;42155;53.096;23.226;2024-02-21T01:19:06;2.88;;;1.70;;
56242;SDS011;42155;53.096;23.226;2024-02-21T01:21:06;4.20;;;1.98;;
56242;SDS011;42155;53.096;23.226;2024-02-21T01:23:07;3.80;;;2.08;;
56242;SDS011;42155;53.096;23.226;2024-02-21T01:25:07;3.72;;;2.30;;
56242;SDS011;42155;53.096;23.226;2024-02-21T01:27:08;3.85;;;2.22;;
56242;SDS011;42155;53.096;23.226;2024-02-21T01:29:08;3.53;;;2.40;;
56242;SDS011;42155;53.096;23.226;2024-02-21T01:31:09;3.55;;;1.80;;
56242;SDS011;42155;53.096;23.226;2024-02-21T01:33:09;6.35;;;2.20;;
56242;SDS011;42155;53.096;23.226;2024-02-21T01:35:09;6.95;;;2.45;;
56242;SDS011;42155;53.096;23.226;2024-02-21T01:37:10;5.85;;;2.17;;
56242;SDS011;42155;53.096;23.226;2024-02-21T01:39:10;3.40;;;2.00;;
56242;SDS011;42155;53.096;23.226;2024-02-21T01:41:10;3.95;;;2.08;;
56242;SDS011;42155;53.096;23.226;2024-02-21T01:43:17;4.47;;;2.22;;
56242;SDS011;42155;53.096;23.226;2024-02-21T01:45:19;3.85;;;2.10;;
56242;SDS011;42155;53.096;23.226;2024-02-21T01:47:20;4.88;;;2.35;;
56242;SDS011;42155;53.096;23.226;2024-02-21T01:49:20;6.40;;;2.53;;
56242;SDS011;42155;53.096;23.226;2024-02-21T01:51:21;3.47;;;1.92;;
56242;SDS011;42155;53.096;23.226;2024-02-21T01:53:23;5.10;;;2.22;;
56242;SDS011;42155;53.096;23.226;2024-02-21T01:55:27;4.82;;;2.35;;
56242;SDS011;42155;53.096;23.226;2024-02-21T01:57:28;3.50;;;2.00;;
56242;SDS011;42155;53.096;23.226;2024-02-21T01:59:28;4.95;;;2.05;;
56242;SDS011;42155;53.096;23.226;2024-02-21T02:01:29;4.68;;;2.53;;
56242;SDS011;42155;53.096;23.226;2024-02-21T02:03:29;4.70;;;2.30;;
56242;SDS011;42155;53.096;23.226;2024-02-21T02:05:31;3.75;;;1.92;;
56242;SDS011;42155;53.096;23.226;2024-02-21T02:07:32;4.22;;;2.33;;
56242;SDS011;42155;53.096;23.226;2024-02-21T02:09:32;4.03;;;2.28;;
56242;SDS011;42155;53.096;23.226;2024-02-21T02:11:33;4.95;;;2.63;;
56242;SDS011;42155;53.096;23.226;2024-02-21T02:13:33;4.95;;;2.50;;
56242;SDS011;42155;53.096;23.226;2024-02-21T02:15:47;6.47;;;2.40;;
56242;SDS011;42155;53.096;23.226;2024-02-21T02:17:48;5.07;;;2.72;;
56242;SDS011;42155;53.096;23.226;2024-02-21T02:19:49;5.88;;;2.92;;
56242;SDS011;42155;53.096;23.226;2024-02-21T02:21:49;3.67;;;2.58;;
56242;SDS011;42155;53.096;23.226;2024-02-21T02:23:53;4.20;;;2.38;;
56242;SDS011;42155;53.096;23.226;2024-02-21T02:25:54;4.95;;;2.90;;
56242;SDS011;42155;53.096;23.226;2024-02-21T02:27:54;9.57;;;2.90;;
56242;SDS011;42155;53.096;23.226;2024-02-21T02:29:54;4.50;;;2.70;;
56242;SDS011;42155;53.096;23.226;2024-02-21T02:31:55;6.05;;;2.70;;
56242;SDS011;42155;53.096;23.226;2024-02-21T02:33:55;5.25;;;2.30;;
56242;SDS011;42155;53.096;23.226;2024-02-21T02:35:55;5.15;;;2.63;;
56242;SDS011;42155;53.096;23.226;2024-02-21T02:37:56;5.43;;;3.40;;
56242;SDS011;42155;53.096;23.226;2024-02-21T02:39:56;5.00;;;2.85;;
56242;SDS011;42155;53.096;23.226;2024-02-21T02:41:56;5.45;;;2.80;;
56242;SDS011;42155;53.096;23.226;2024-02-21T02:43:57;5.32;;;2.78;;
56242;SDS011;42155;53.096;23.226;2024-02-21T02:45:57;6.18;;;2.97;;
56242;SDS011;42155;53.096;23.226;2024-02-21T02:47:57;5.20;;;2.72;;
56242;SDS011;42155;53.096;23.226;2024-02-21T02:49:58;4.10;;;2.30;;
56242;SDS011;42155;53.096;23.226;2024-02-21T02:51:58;4.10;;;2.40;;
56242;SDS011;42155;53.096;23.226;2024-02-21T02:53:59;5.10;;;2.75;;
56242;SDS011;42155;53.096;23.226;2024-02-21T02:55:59;5.55;;;2.75;;
56242;SDS011;42155;53.096;23.226;2024-02-21T02:57:59;4.22;;;2.58;;
56242;SDS011;42155;53.096;23.226;2024-02-21T03:00:00;4.85;;;2.80;;
56242;SDS011;42155;53.096;23.226;2024-02-21T03:02:00;4.63;;;2.83;;
56242;SDS011;42155;53.096;23.226;2024-02-21T03:04:01;6.40;;;3.38;;
56242;SDS011;42155;53.096;23.226;2024-02-21T03:06:02;5.13;;;3.10;;
56242;SDS011;42155;53.096;23.226;2024-02-21T03:08:02;5.50;;;3.30;;
56242;SDS011;42155;53.096;23.226;2024-02-21T03:10:03;6.25;;;3.38;;
56242;SDS011;42155;53.096;23.226;2024-02-21T03:12:04;5.88;;;3.00;;
56242;SDS011;42155;53.096;23.226;2024-02-21T03:14:05;7.47;;;3.35;;
56242;SDS011;42155;53.096;23.226;2024-02-21T03:16:05;6.05;;;3.35;;
56242;SDS011;42155;53.096;23.226;2024-02-21T03:18:06;6.45;;;3.20;;
56242;SDS011;42155;53.096;23.226;2024-02-21T03:20:06;5.95;;;3.28;;
56242;SDS011;42155;53.096;23.226;2024-02-21T03:22:07;6.55;;;3.70;;
56242;SDS011;42155;53.096;23.226;2024-02-21T03:24:07;6.40;;;3.38;;
56242;SDS011;42155;53.096;23.226;2024-02-21T03:26:08;5.85;;;3.42;;
56242;SDS011;42155;53.096;23.226;2024-02-21T03:28:08;4.97;;;3.10;;
56242;SDS011;42155;53.096;23.226;2024-02-21T03:30:08;6.55;;;3.85;;
56242;SDS011;42155;53.096;23.226;2024-02-21T03:32:09;5.97;;;3.65;;
56242;SDS011;42155;53.096;23.226;2024-02-21T03:34:10;9.07;;;4.18;;
56242;SDS011;42155;53.096;23.226;2024-02-21T03:36:14;6.22;;;3.83;;
56242;SDS011;42155;53.096;23.226;2024-02-21T03:38:14;9.30;;;4.22;;
56242;SDS011;42155;53.096;23.226;2024-02-21T03:40:14;8.98;;;4.40;;
56242;SDS011;42155;53.096;23.226;2024-02-21T03:42:15;7.28;;;4.00;;
56242;SDS011;42155;53.096;23.226;2024-02-21T03:44:15;7.70;;;4.20;;
56242;SDS011;42155;53.096;23.226;2024-02-21T03:46:15;7.80;;;3.88;;
56242;SDS011;42155;53.096;23.226;2024-02-21T03:48:16;7.43;;;4.00;;
56242;SDS011;42155;53.096;23.226;2024-02-21T03:50:16;8.07;;;4.55;;
56242;SDS011;42155;53.096;23.226;2024-02-21T03:52:16;7.10;;;4.30;;
56242;SDS011;42155;53.096;23.226;2024-02-21T03:54:17;6.90;;;3.88;;
56242;SDS011;42155;53.096;23.226;2024-02-21T03:56:17;9.68;;;4.40;;
56242;SDS011;42155;53.096;23.226;2024-02-21T03:58:17;8.50;;;4.13;;
56242;SDS011;42155;53.096;23.226;2024-02-21T04:00:18;6.90;;;3.88;;
56242;SDS011;42155;53.096;23.226;2024-02-21T04:02:18;7.18;;;4.13;;
56242;SDS011;42155;53.096;23.226;2024-02-21T04:04:18;7.93;;;4.03;;
56242;SDS011;42155;53.096;23.226;2024-02-21T04:06:19;6.95;;;3.97;;
56242;SDS011;42155;53.096;23.226;2024-02-21T04:08:19;8.52;;;3.65;;
56242;SDS011;42155;53.096;23.226;2024-02-21T04:10:19;6.05;;;3.78;;
56242;SDS011;42155;53.096;23.226;2024-02-21T04:12:20;8.32;;;4.05;;
56242;SDS011;42155;53.096;23.226;2024-02-21T04:14:20;8.88;;;4.22;;
56242;SDS011;42155;53.096;23.226;2024-02-21T04:16:20;9.52;;;4.38;;
56242;SDS011;42155;53.096;23.226;2024-02-21T04:18:21;8.18;;;4.43;;
56242;SDS011;42155;53.096;23.226;2024-02-21T04:20:21;9.95;;;5.15;;
56242;SDS011;42155;53.096;23.226;2024-02-21T04:22:21;8.57;;;4.78;;
56242;SDS011;42155;53.096;23.226;2024-02-21T04:24:22;10.82;;;5.38;;
56242;SDS011;42155;53.096;23.226;2024-02-21T04:26:22;11.50;;;5.55;;
56242;SDS011;42155;53.096;23.226;2024-02-21T04:28:22;10.32;;;5.55;;
56242;SDS011;42155;53.096;23.226;2024-02-21T04:30:23;12.55;;;6.35;;
56242;SDS011;42155;53.096;23.226;2024-02-21T04:32:23;12.57;;;6.70;;
56242;SDS011;42155;53.096;23.226;2024-02-21T04:34:23;10.35;;;5.80;;
56242;SDS011;42155;53.096;23.226;2024-02-21T04:36:24;12.57;;;6.20;;
56242;SDS011;42155;53.096;23.226;2024-02-21T04:38:24;12.25;;;6.88;;
56242;SDS011;42155;53.096;23.226;2024-02-21T04:40:24;13.60;;;6.97;;
56242;SDS011;42155;53.096;23.226;2024-02-21T04:42:25;15.85;;;7.07;;
56242;SDS011;42155;53.096;23.226;2024-02-21T04:44:25;13.00;;;7.10;;
56242;SDS011;42155;53.096;23.226;2024-02-21T04:46:25;13.07;;;6.93;;
56242;SDS011;42155;53.096;23.226;2024-02-21T04:48:26;13.48;;;7.13;;
56242;SDS011;42155;53.096;23.226;2024-02-21T04:50:26;17.60;;;8.20;;
56242;SDS011;42155;53.096;23.226;2024-02-21T04:52:27;15.85;;;8.65;;
56242;SDS011;42155;53.096;23.226;2024-02-21T04:54:27;17.05;;;8.68;;
56242;SDS011;42155;53.096;23.226;2024-02-21T04:56:27;15.43;;;8.13;;
56242;SDS011;42155;53.096;23.226;2024-02-21T04:58:28;15.73;;;8.10;;
56242;SDS011;42155;53.096;23.226;2024-02-21T05:00:28;16.63;;;8.35;;
56242;SDS011;42155;53.096;23.226;2024-02-21T05:02:28;15.32;;;8.43;;
56242;SDS011;42155;53.096;23.226;2024-02-21T05:04:29;15.98;;;8.18;;
56242;SDS011;42155;53.096;23.226;2024-02-21T05:06:29;14.88;;;7.90;;
56242;SDS011;42155;53.096;23.226;2024-02-21T05:08:29;17.35;;;8.77;;
56242;SDS011;42155;53.096;23.226;2024-02-21T05:10:29;15.85;;;8.48;;
56242;SDS011;42155;53.096;23.226;2024-02-21T05:12:30;18.73;;;9.07;;
56242;SDS011;42155;53.096;23.226;2024-02-21T05:14:30;19.10;;;8.73;;
56242;SDS011;42155;53.096;23.226;2024-02-21T05:16:31;14.50;;;8.10;;
56242;SDS011;42155;53.096;23.226;2024-02-21T05:18:32;19.15;;;8.88;;
56242;SDS011;42155;53.096;23.226;2024-02-21T05:20:33;14.93;;;7.63;;
56242;SDS011;42155;53.096;23.226;2024-02-21T05:22:33;16.10;;;8.40;;
56242;SDS011;42155;53.096;23.226;2024-02-21T05:24:33;16.83;;;8.40;;
56242;SDS011;42155;53.096;23.226;2024-02-21T05:26:34;15.90;;;7.85;;
56242;SDS011;42155;53.096;23.226;2024-02-21T05:28:34;18.27;;;8.20;;
56242;SDS011;42155;53.096;23.226;2024-02-21T05:30:34;18.40;;;8.93;;
56242;SDS011;42155;53.096;23.226;2024-02-21T05:32:35;13.95;;;7.57;;
56242;SDS011;42155;53.096;23.226;2024-02-21T05:34:35;14.93;;;7.40;;
56242;SDS011;42155;53.096;23.226;2024-02-21T05:36:36;13.30;;;7.30;;
56242;SDS011;42155;53.096;23.226;2024-02-21T05:38:36;13.75;;;7.57;;
56242;SDS011;42155;53.096;23.226;2024-02-21T05:40:37;15.18;;;7.68;;
56242;SDS011;42155;53.096;23.226;2024-02-21T05:42:37;15.88;;;7.78;;
56242;SDS011;42155;53.096;23.226;2024-02-21T05:44:37;14.90;;;7.38;;
56242;SDS011;42155;53.096;23.226;2024-02-21T05:46:38;14.32;;;7.55;;
56242;SDS011;42155;53.096;23.226;2024-02-21T05:48:38;14.82;;;7.60;;
56242;SDS011;42155;53.096;23.226;2024-02-21T05:50:38;13.98;;;6.57;;
56242;SDS011;42155;53.096;23.226;2024-02-21T05:52:39;13.48;;;7.40;;
56242;SDS011;42155;53.096;23.226;2024-02-21T05:54:39;13.90;;;6.68;;
56242;SDS011;42155;53.096;23.226;2024-02-21T05:56:39;12.23;;;6.40;;
56242;SDS011;42155;53.096;23.226;2024-02-21T05:58:43;14.98;;;7.18;;
56242;SDS011;42155;53.096;23.226;2024-02-21T06:00:44;16.73;;;7.47;;
56242;SDS011;42155;53.096;23.226;2024-02-21T06:02:44;13.80;;;6.93;;
56242;SDS011;42155;53.096;23.226;2024-02-21T06:04:44;12.75;;;6.57;;
56242;SDS011;42155;53.096;23.226;2024-02-21T06:06:45;15.57;;;6.95;;
56242;SDS011;42155;53.096;23.226;2024-02-21T06:08:45;12.70;;;7.00;;
56242;SDS011;42155;53.096;23.226;2024-02-21T06:10:45;11.98;;;6.47;;
56242;SDS011;42155;53.096;23.226;2024-02-21T06:12:46;10.88;;;6.22;;
56242;SDS011;42155;53.096;23.226;2024-02-21T06:14:46;11.65;;;6.63;;
56242;SDS011;42155;53.096;23.226;2024-02-21T06:16:46;13.27;;;6.03;;
56242;SDS011;42155;53.096;23.226;2024-02-21T06:18:47;12.40;;;6.47;;
56242;SDS011;42155;53.096;23.226;2024-02-21T06:20:47;12.52;;;6.28;;
56242;SDS011;42155;53.096;23.226;2024-02-21T06:22:47;14.68;;;6.28;;
56242;SDS011;42155;53.096;23.226;2024-02-21T06:24:48;12.93;;;6.75;;
56242;SDS011;42155;53.096;23.226;2024-02-21T06:26:48;14.30;;;6.80;;
56242;SDS011;42155;53.096;23.226;2024-02-21T06:28:48;13.20;;;6.72;;
56242;SDS011;42155;53.096;23.226;2024-02-21T06:30:48;14.60;;;6.93;;
56242;SDS011;42155;53.096;23.226;2024-02-21T06:32:49;14.82;;;7.38;;
56242;SDS011;42155;53.096;23.226;2024-02-21T06:34:49;12.18;;;6.00;;
56242;SDS011;42155;53.096;23.226;2024-02-21T06:36:50;10.40;;;6.32;;
56242;SDS011;42155;53.096;23.226;2024-02-21T06:38:50;12.50;;;6.03;;
56242;SDS011;42155;53.096;23.226;2024-02-21T06:40:51;11.52;;;5.40;;
56242;SDS011;42155;53.096;23.226;2024-02-21T06:42:51;9.68;;;5.47;;
56242;SDS011;42155;53.096;23.226;2024-02-21T06:44:51;13.15;;;6.32;;
56242;SDS011;42155;53.096;23.226;2024-02-21T06:46:52;8.27;;;4.68;;
56242;SDS011;42155;53.096;23.226;2024-02-21T06:48:52;12.23;;;5.15;;
56242;SDS011;42155;53.096;23.226;2024-02-21T06:50:53;11.73;;;4.88;;
56242;SDS011;42155;53.096;23.226;2024-02-21T06:52:53;9.95;;;5.10;;
56242;SDS011;42155;53.096;23.226;2024-02-21T06:54:53;11.07;;;4.90;;
56242;SDS011;42155;53.096;23.226;2024-02-21T06:56:54;11.43;;;4.65;;
56242;SDS011;42155;53.096;23.226;2024-02-21T06:58:57;12.02;;;4.70;;
56242;SDS011;42155;53.096;23.226;2024-02-21T07:00:57;10.50;;;5.15;;
56242;SDS011;42155;53.096;23.226;2024-02-21T07:02:58;14.20;;;6.68;;
56242;SDS011;42155;53.096;23.226;2024-02-21T07:04:58;11.45;;;5.35;;
56242;SDS011;42155;53.096;23.226;2024-02-21T07:06:58;11.18;;;5.82;;
56242;SDS011;42155;53.096;23.226;2024-02-21T07:08:59;13.20;;;5.75;;
56242;SDS011;42155;53.096;23.226;2024-02-21T07:10:59;10.68;;;5.30;;
56242;SDS011;42155;53.096;23.226;2024-02-21T07:12:59;11.60;;;6.30;;
56242;SDS011;42155;53.096;23.226;2024-02-21T07:15:00;13.07;;;6.68;;
56242;SDS011;42155;53.096;23.226;2024-02-21T07:17:00;12.25;;;7.03;;
56242;SDS011;42155;53.096;23.226;2024-02-21T07:19:01;13.88;;;6.65;;
56242;SDS011;42155;53.096;23.226;2024-02-21T07:21:01;13.30;;;6.82;;
56242;SDS011;42155;53.096;23.226;2024-02-21T07:23:02;13.93;;;7.38;;
56242;SDS011;42155;53.096;23.226;2024-02-21T07:25:03;19.52;;;9.15;;
56242;SDS011;42155;53.096;23.226;2024-02-21T07:27:04;21.95;;;9.82;;
56242;SDS011;42155;53.096;23.226;2024-02-21T07:29:04;17.30;;;8.52;;
56242;SDS011;42155;53.096;23.226;2024-02-21T07:31:04;16.08;;;8.38;;
56242;SDS011;42155;53.096;23.226;2024-02-21T07:33:05;13.18;;;6.70;;
56242;SDS011;42155;53.096;23.226;2024-02-21T07:35:05;16.92;;;6.85;;
56242;SDS011;42155;53.096;23.226;2024-02-21T07:37:06;11.80;;;7.43;;
56242;SDS011;42155;53.096;23.226;2024-02-21T07:39:06;20.23;;;8.70;;
56242;SDS011;42155;53.096;23.226;2024-02-21T07:41:06;16.10;;;7.05;;
56242;SDS011;42155;53.096;23.226;2024-02-21T07:43:07;16.75;;;8.10;;
56242;SDS011;42155;53.096;23.226;2024-02-21T07:45:07;19.80;;;8.48;;
56242;SDS011;42155;53.096;23.226;2024-02-21T07:47:08;12.10;;;6.75;;
56242;SDS011;42155;53.096;23.226;2024-02-21T07:49:08;20.02;;;8.30;;
56242;SDS011;42155;53.096;23.226;2024-02-21T07:51:09;22.65;;;9.75;;
56242;SDS011;42155;53.096;23.226;2024-02-21T07:53:09;20.30;;;9.25;;
56242;SDS011;42155;53.096;23.226;2024-02-21T07:55:09;18.17;;;8.57;;
56242;SDS011;42155;53.096;23.226;2024-02-21T07:57:10;22.80;;;10.57;;
56242;SDS011;42155;53.096;23.226;2024-02-21T07:59:10;26.42;;;10.98;;
56242;SDS011;42155;53.096;23.226;2024-02-21T08:01:10;19.20;;;8.70;;
56242;SDS011;42155;53.096;23.226;2024-02-21T08:03:11;16.95;;;8.77;;
56242;SDS011;42155;53.096;23.226;2024-02-21T08:05:11;19.60;;;8.52;;
56242;SDS011;42155;53.096;23.226;2024-02-21T08:07:12;15.15;;;8.70;;
56242;SDS011;42155;53.096;23.226;2024-02-21T08:09:12;15.48;;;8.00;;
56242;SDS011;42155;53.096;23.226;2024-02-21T08:11:12;13.13;;;7.18;;
56242;SDS011;42155;53.096;23.226;2024-02-21T08:13:13;13.98;;;7.93;;
56242;SDS011;42155;53.096;23.226;2024-02-21T08:15:13;17.27;;;9.07;;
56242;SDS011;42155;53.096;23.226;2024-02-21T08:17:13;18.15;;;8.40;;
56242;SDS011;42155;53.096;23.226;2024-02-21T08:19:14;15.98;;;8.30;;
56242;SDS011;42155;53.096;23.226;2024-02-21T08:21:14;12.10;;;6.47;;
56242;SDS011;42155;53.096;23.226;2024-02-21T08:23:18;14.48;;;7.63;;
56242;SDS011;42155;53.096;23.226;2024-02-21T08:25:21;14.07;;;8.02;;
56242;SDS011;42155;53.096;23.226;2024-02-21T08:27:23;16.50;;;7.03;;
56242;SDS011;42155;53.096;23.226;2024-02-21T08:29:23;17.05;;;7.97;;
56242;SDS011;42155;53.096;23.226;2024-02-21T08:31:24;16.13;;;7.57;;
56242;SDS011;42155;53.096;23.226;2024-02-21T08:33:24;14.88;;;6.15;;
56242;SDS011;42155;53.096;23.226;2024-02-21T08:35:24;16.10;;;7.57;;
56242;SDS011;42155;53.096;23.226;2024-02-21T08:37:26;15.63;;;6.78;;
56242;SDS011;42155;53.096;23.226;2024-02-21T08:39:27;18.98;;;8.00;;
56242;SDS011;42155;53.096;23.226;2024-02-21T08:41:27;15.48;;;7.85;;
56242;SDS011;42155;53.096;23.226;2024-02-21T08:43:30;17.67;;;7.72;;
56242;SDS011;42155;53.096;23.226;2024-02-21T08:45:30;17.83;;;8.52;;
56242;SDS011;42155;53.096;23.226;2024-02-21T08:47:30;17.60;;;7.30;;
56242;SDS011;42155;53.096;23.226;2024-02-21T08:49:31;16.08;;;7.53;;
56242;SDS011;42155;53.096;23.226;2024-02-21T08:51:31;12.95;;;6.80;;
56242;SDS011;42155;53.096;23.226;2024-02-21T08:53:32;12.30;;;5.93;;
56242;SDS011;42155;53.096;23.226;2024-02-21T08:55:32;13.98;;;7.38;;
56242;SDS011;42155;53.096;23.226;2024-02-21T08:57:32;17.73;;;7.30;;
56242;SDS011;42155;53.096;23.226;2024-02-21T08:59:33;13.15;;;6.50;;
56242;SDS011;42155;53.096;23.226;2024-02-21T09:01:33;14.00;;;8.00;;
56242;SDS011;42155;53.096;23.226;2024-02-21T09:03:33;12.75;;;7.05;;
56242;SDS011;42155;53.096;23.226;2024-02-21T09:05:34;18.63;;;7.45;;
56242;SDS011;42155;53.096;23.226;2024-02-21T09:07:34;13.38;;;7.65;;
56242;SDS011;42155;53.096;23.226;2024-02-21T09:09:34;13.93;;;7.63;;
56242;SDS011;42155;53.096;23.226;2024-02-21T09:11:35;13.02;;;7.82;;
56242;SDS011;42155;53.096;23.226;2024-02-21T09:13:35;17.65;;;8.52;;
56242;SDS011;42155;53.096;23.226;2024-02-21T09:15:36;16.42;;;7.72;;
56242;SDS011;42155;53.096;23.226;2024-02-21T09:17:36;15.85;;;7.70;;
56242;SDS011;42155;53.096;23.226;2024-02-21T09:19:36;20.73;;;8.32;;
56242;SDS011;42155;53.096;23.226;2024-02-21T09:21:37;18.63;;;7.93;;
56242;SDS011;42155;53.096;23.226;2024-02-21T09:23:37;17.20;;;7.97;;
56242;SDS011;42155;53.096;23.226;2024-02-21T09:25:38;15.27;;;7.40;;
56242;SDS011;42155;53.096;23.226;2024-02-21T09:27:38;14.32;;;7.88;;
56242;SDS011;42155;53.096;23.226;2024-02-21T09:29:39;19.20;;;8.40;;
56242;SDS011;42155;53.096;23.226;2024-02-21T09:31:39;14.35;;;8.48;;
56242;SDS011;42155;53.096;23.226;2024-02-21T09:33:39;17.38;;;8.60;;
56242;SDS011;42155;53.096;23.226;2024-02-21T09:35:40;17.27;;;9.07;;
56242;SDS011;42155;53.096;23.226;2024-02-21T09:37:40;21.00;;;8.85;;
56242;SDS011;42155;53.096;23.226;2024-02-21T09:39:40;17.30;;;8.20;;
56242;SDS011;42155;53.096;23.226;2024-02-21T09:41:42;22.98;;;8.63;;
56242;SDS011;42155;53.096;23.226;2024-02-21T09:43:47;22.83;;;9.43;;
56242;SDS011;42155;53.096;23.226;2024-02-21T09:45:50;23.95;;;9.10;;
56242;SDS011;42155;53.096;23.226;2024-02-21T09:50:08;19.15;;;8.98;;
56242;SDS011;42155;53.096;23.226;2024-02-21T09:52:08;19.90;;;8.02;;
56242;SDS011;42155;53.096;23.226;2024-02-21T09:54:10;21.05;;;9.48;;
56242;SDS011;42155;53.096;23.226;2024-02-21T09:56:10;23.58;;;9.20;;
56242;SDS011;42155;53.096;23.226;2024-02-21T09:58:11;19.83;;;8.75;;
56242;SDS011;42155;53.096;23.226;2024-02-21T10:00:12;17.58;;;8.43;;
56242;SDS011;42155;53.096;23.226;2024-02-21T10:02:13;20.60;;;8.80;;
56242;SDS011;42155;53.096;23.226;2024-02-21T10:04:13;19.33;;;8.52;;
56242;SDS011;42155;53.096;23.226;2024-02-21T10:06:14;17.67;;;8.07;;
56242;SDS011;42155;53.096;23.226;2024-02-21T10:08:14;20.88;;;9.38;;
56242;SDS011;42155;53.096;23.226;2024-02-21T10:10:15;19.85;;;9.43;;
56242;SDS011;42155;53.096;23.226;2024-02-21T10:12:15;17.42;;;8.57;;
56242;SDS011;42155;53.096;23.226;2024-02-21T10:14:15;19.45;;;8.65;;
56242;SDS011;42155;53.096;23.226;2024-02-21T10:16:16;21.83;;;9.60;;
56242;SDS011;42155;53.096;23.226;2024-02-21T10:18:17;15.50;;;7.47;;
56242;SDS011;42155;53.096;23.226;2024-02-21T10:20:18;21.85;;;9.25;;
56242;SDS011;42155;53.096;23.226;2024-02-21T10:22:18;21.02;;;8.32;;
56242;SDS011;42155;53.096;23.226;2024-02-21T10:24:25;18.75;;;8.60;;
56242;SDS011;42155;53.096;23.226;2024-02-21T10:26:26;20.08;;;7.95;;
56242;SDS011;42155;53.096;23.226;2024-02-21T10:28:27;16.40;;;7.68;;
56242;SDS011;42155;53.096;23.226;2024-02-21T10:30:27;26.73;;;9.00;;
56242;SDS011;42155;53.096;23.226;2024-02-21T10:32:28;19.70;;;8.10;;
56242;SDS011;42155;53.096;23.226;2024-02-21T10:34:28;19.23;;;8.25;;
56242;SDS011;42155;53.096;23.226;2024-02-21T10:36:29;20.58;;;8.23;;
56242;SDS011;42155;53.096;23.226;2024-02-21T10:38:29;21.90;;;8.15;;
56242;SDS011;42155;53.096;23.226;2024-02-21T10:40:29;19.15;;;8.07;;
56242;SDS011;42155;53.096;23.226;2024-02-21T10:42:30;18.15;;;8.43;;
56242;SDS011;42155;53.096;23.226;2024-02-21T10:44:35;22.92;;;8.70;;
56242;SDS011;42155;53.096;23.226;2024-02-21T10:46:37;17.63;;;7.70;;
56242;SDS011;42155;53.096;23.226;2024-02-21T10:48:42;19.35;;;8.50;;
56242;SDS011;42155;53.096;23.226;2024-02-21T10:52:57;22.10;;;7.43;;
56242;SDS011;42155;53.096;23.226;2024-02-21T10:55:20;20.00;;;7.78;;
56242;SDS011;42155;53.096;23.226;2024-02-21T10:57:26;19.58;;;7.90;;
56242;SDS011;42155;53.096;23.226;2024-02-21T10:59:27;23.25;;;8.13;;
56242;SDS011;42155;53.096;23.226;2024-02-21T11:01:28;19.48;;;8.18;;
56242;SDS011;42155;53.096;23.226;2024-02-21T11:03:29;22.13;;;7.82;;
56242;SDS011;42155;53.096;23.226;2024-02-21T11:05:30;20.05;;;7.93;;
56242;SDS011;42155;53.096;23.226;2024-02-21T11:07:32;16.92;;;7.47;;
56242;SDS011;42155;53.096;23.226;2024-02-21T11:09:37;17.80;;;7.90;;
56242;SDS011;42155;53.096;23.226;2024-02-21T11:11:38;19.15;;;7.38;;
56242;SDS011;42155;53.096;23.226;2024-02-21T11:13:43;20.10;;;7.45;;
56242;SDS011;42155;53.096;23.226;2024-02-21T11:15:43;18.48;;;7.80;;
56242;SDS011;42155;53.096;23.226;2024-02-21T11:17:53;18.35;;;7.72;;
56242;SDS011;42155;53.096;23.226;2024-02-21T11:19:54;20.42;;;8.45;;
56242;SDS011;42155;53.096;23.226;2024-02-21T11:21:55;21.45;;;8.27;;
56242;SDS011;42155;53.096;23.226;2024-02-21T11:23:56;20.83;;;9.00;;
56242;SDS011;42155;53.096;23.226;2024-02-21T11:26:09;20.27;;;8.90;;
56242;SDS011;42155;53.096;23.226;2024-02-21T11:28:10;17.48;;;7.65;;
56242;SDS011;42155;53.096;23.226;2024-02-21T11:30:11;15.65;;;7.90;;
56242;SDS011;42155;53.096;23.226;2024-02-21T11:32:14;14.07;;;7.13;;
56242;SDS011;42155;53.096;23.226;2024-02-21T11:34:17;18.58;;;7.15;;
56242;SDS011;42155;53.096;23.226;2024-02-21T11:36:25;19.00;;;6.95;;
56242;SDS011;42155;53.096;23.226;2024-02-21T11:38:25;18.00;;;6.80;;
56242;SDS011;42155;53.096;23.226;2024-02-21T11:40:26;22.73;;;7.53;;
56242;SDS011;42155;53.096;23.226;2024-02-21T11:42:26;18.67;;;7.63;;
56242;SDS011;42155;53.096;23.226;2024-02-21T11:44:27;19.80;;;7.43;;
56242;SDS011;42155;53.096;23.226;2024-02-21T11:46:27;19.10;;;7.55;;
56242;SDS011;42155;53.096;23.226;2024-02-21T11:48:28;20.42;;;7.53;;
56242;SDS011;42155;53.096;23.226;2024-02-21T11:50:28;16.90;;;7.68;;
56242;SDS011;42155;53.096;23.226;2024-02-21T11:52:29;21.35;;;8.00;;
56242;SDS011;42155;53.096;23.226;2024-02-21T11:54:30;19.85;;;7.97;;